createdAt,value
2018-06-02T00:02:04.000Z,10.13
2018-06-02T00:06:06.482Z,10.10
2018-06-02T00:10:08.968Z,10.57
2018-06-02T00:14:11.449Z,10.80
2018-06-02T00:18:13.934Z,11.03
2018-06-02T00:22:16.413Z,9.63
2018-06-02T00:26:18.893Z,9.07
2018-06-02T00:30:21.375Z,10.10
2018-06-02T00:34:23.836Z,10.37
2018-06-02T00:38:26.323Z,10.17
2018-06-02T00:42:28.818Z,11.57
2018-06-02T00:46:31.276Z,10.07
2018-06-02T00:50:33.770Z,9.33
2018-06-02T00:54:48.035Z,10.20
2018-06-02T00:58:50.533Z,9.73
2018-06-02T01:02:53.009Z,8.93
2018-06-02T01:06:55.496Z,10.80
2018-06-02T01:10:57.951Z,9.73
2018-06-02T01:15:00.439Z,9.83
2018-06-02T01:19:02.899Z,8.87
2018-06-02T01:23:05.390Z,8.40
2018-06-02T01:27:07.879Z,10.13
2018-06-02T01:31:10.334Z,9.73
2018-06-02T01:35:12.816Z,10.17
2018-06-02T01:39:15.292Z,8.83
2018-06-02T01:43:17.775Z,10.47
2018-06-02T01:47:20.240Z,9.10
2018-06-02T01:51:22.719Z,11.50
2018-06-02T01:55:25.205Z,9.17
2018-06-02T01:59:27.721Z,8.63
2018-06-02T02:03:30.176Z,9.57
2018-06-02T02:07:32.659Z,10.37
2018-06-02T02:11:35.143Z,9.50
2018-06-02T02:15:37.626Z,11.60
2018-06-02T02:19:40.108Z,9.87
2018-06-02T02:23:42.597Z,10.07
2018-06-02T02:27:45.051Z,9.27
2018-06-02T02:31:47.540Z,9.90
2018-06-02T02:35:50.037Z,9.67
2018-06-02T02:39:52.528Z,9.50
2018-06-02T02:43:54.973Z,9.70
2018-06-02T02:47:57.459Z,9.50
2018-06-02T02:51:59.917Z,9.73
2018-06-02T02:56:02.397Z,9.97
2018-06-02T03:00:04.887Z,9.53
2018-06-02T03:04:07.378Z,10.67
2018-06-02T03:08:09.866Z,9.30
2018-06-02T03:12:12.347Z,10.33
2018-06-02T03:16:14.831Z,8.83
2018-06-02T03:20:17.286Z,9.20
2018-06-02T03:24:19.763Z,8.67
2018-06-02T03:28:22.250Z,10.23
2018-06-02T03:32:24.735Z,10.90
2018-06-02T03:36:28.079Z,8.90
2018-06-02T03:40:30.560Z,9.17
2018-06-02T03:44:33.048Z,8.93
2018-06-02T03:48:35.544Z,9.30
2018-06-02T03:52:37.994Z,8.07
2018-06-02T03:56:40.462Z,8.00
2018-06-02T04:00:42.933Z,8.37
2018-06-02T04:04:45.418Z,7.57
2018-06-02T04:08:47.914Z,7.00
2018-06-02T04:12:50.385Z,7.07
2018-06-02T04:16:52.878Z,7.27
2018-06-02T04:20:55.362Z,7.23
2018-06-02T04:24:57.847Z,8.90
2018-06-02T04:29:00.304Z,6.07
2018-06-02T04:33:02.795Z,5.40
2018-06-02T04:37:05.278Z,5.70
2018-06-02T04:41:07.733Z,5.40
2018-06-02T04:45:10.220Z,6.20
2018-06-02T04:49:12.716Z,5.47
2018-06-02T04:53:15.167Z,5.60
2018-06-02T04:57:17.655Z,5.47
2018-06-02T05:01:20.106Z,5.53
2018-06-02T05:05:22.580Z,5.50
2018-06-02T05:09:25.064Z,5.20
2018-06-02T05:13:27.547Z,7.45
2018-06-02T05:17:30.029Z,5.73
2018-06-02T05:21:32.508Z,5.83
2018-06-02T05:25:34.991Z,5.00
2018-06-02T05:29:37.470Z,5.67
2018-06-02T05:33:39.965Z,6.00
2018-06-02T05:37:42.463Z,5.10
2018-06-02T05:41:44.918Z,5.62
2018-06-02T05:45:47.400Z,3.67
2018-06-02T05:49:49.894Z,4.35
2018-06-02T05:53:52.370Z,3.95
2018-06-02T05:57:54.861Z,5.12
2018-06-02T06:01:57.326Z,4.93
2018-06-02T06:05:59.822Z,4.57
2018-06-02T06:10:02.314Z,4.82
2018-06-02T06:14:04.774Z,3.95
2018-06-02T06:18:07.265Z,3.97
2018-06-02T06:22:09.715Z,5.07
2018-06-02T06:26:12.201Z,3.37
2018-06-02T06:30:14.689Z,4.87
2018-06-02T06:34:17.160Z,3.58
2018-06-02T06:38:19.643Z,3.67
2018-06-02T06:42:22.110Z,4.93
2018-06-02T06:46:24.598Z,3.22
2018-06-02T06:50:27.080Z,5.40
2018-06-02T06:54:29.571Z,3.95
2018-06-02T06:58:32.058Z,3.20
2018-06-02T07:02:34.512Z,3.65
2018-06-02T07:06:36.990Z,4.65
2018-06-02T07:10:39.483Z,3.60
2018-06-02T07:14:41.970Z,4.43
2018-06-02T07:18:44.458Z,3.95
2018-06-02T07:22:46.942Z,3.55
2018-06-02T07:26:49.438Z,5.62
2018-06-02T07:30:52.006Z,3.80
2018-06-02T07:34:54.492Z,3.40
2018-06-02T07:38:56.953Z,5.53
2018-06-02T07:42:59.434Z,3.60
2018-06-02T07:47:01.927Z,4.75
2018-06-02T07:51:04.390Z,5.07
2018-06-02T07:55:06.889Z,4.60
2018-06-02T07:59:09.373Z,3.70
2018-06-02T08:03:11.842Z,4.43
2018-06-02T08:07:14.326Z,5.03
2018-06-02T08:11:16.809Z,4.87
2018-06-02T08:15:19.298Z,3.72
2018-06-02T08:19:21.778Z,4.20
2018-06-02T08:23:24.276Z,4.65
2018-06-02T08:27:26.754Z,3.65
2018-06-02T08:31:29.220Z,3.78
2018-06-02T08:35:31.703Z,5.53
2018-06-02T08:39:34.201Z,2.80
2018-06-02T08:43:36.691Z,3.47
2018-06-02T08:47:39.157Z,4.93
2018-06-02T08:51:41.642Z,5.20
2018-06-02T08:55:45.051Z,5.37
2018-06-02T08:59:47.539Z,3.00
2018-06-02T09:03:50.041Z,3.37
2018-06-02T09:07:52.517Z,5.37
2018-06-02T09:11:55.002Z,3.45
2018-06-02T09:15:57.490Z,3.87
2018-06-02T09:19:59.972Z,3.37
2018-06-02T09:24:02.488Z,5.12
2018-06-02T09:28:04.978Z,3.85
2018-06-02T09:32:07.435Z,4.22
2018-06-02T09:36:10.888Z,4.97
2018-06-02T09:40:13.374Z,4.37
2018-06-02T09:44:15.887Z,4.72
2018-06-02T09:48:18.343Z,4.80
2018-06-02T09:52:20.833Z,4.25
2018-06-02T09:56:23.287Z,4.62
2018-06-02T10:00:25.784Z,4.30
2018-06-02T10:04:28.284Z,3.92
2018-06-02T10:08:30.774Z,6.82
2018-06-02T10:12:33.234Z,3.75
2018-06-02T10:16:35.722Z,4.25
2018-06-02T10:20:38.224Z,3.65
2018-06-02T10:24:40.773Z,3.78
2018-06-02T10:28:43.280Z,3.97
2018-06-02T10:32:45.741Z,3.70
2018-06-02T10:36:48.231Z,3.83
2018-06-02T10:40:50.699Z,3.53
2018-06-02T10:44:53.183Z,3.45
2018-06-02T10:48:55.679Z,3.70
2018-06-02T10:52:58.182Z,3.40
2018-06-02T10:57:00.675Z,3.28
2018-06-02T11:01:03.166Z,5.28
2018-06-02T11:05:05.621Z,4.55
2018-06-02T11:09:08.147Z,3.30
2018-06-02T11:13:10.570Z,3.60
2018-06-02T11:17:13.056Z,5.05
2018-06-02T11:21:15.542Z,3.53
2018-06-02T11:25:18.019Z,3.40
2018-06-02T11:29:20.510Z,4.65
2018-06-02T11:33:22.966Z,3.50
2018-06-02T11:37:25.449Z,4.15
2018-06-02T11:41:27.927Z,4.03
2018-06-02T11:45:30.418Z,4.05
2018-06-02T11:49:32.882Z,6.62
2018-06-02T11:53:35.365Z,5.37
2018-06-02T11:57:37.852Z,4.47
2018-06-02T12:01:40.328Z,4.30
2018-06-02T12:05:42.812Z,3.97
2018-06-02T12:09:45.299Z,4.68
2018-06-02T12:13:47.785Z,5.03
2018-06-02T12:17:50.261Z,4.32
2018-06-02T12:21:52.714Z,9.20
2018-06-02T12:25:55.189Z,4.90
2018-06-02T12:29:57.674Z,5.40
2018-06-02T12:34:00.164Z,5.37
2018-06-02T12:38:02.621Z,5.30
2018-06-02T12:42:05.097Z,5.43
2018-06-02T12:46:08.558Z,5.07
2018-06-02T12:50:11.019Z,6.30
2018-06-02T12:54:13.515Z,5.45
2018-06-02T12:58:16.002Z,6.05
2018-06-02T13:02:18.477Z,5.78
2018-06-02T13:06:20.956Z,4.70
2018-06-02T13:10:23.443Z,4.50
2018-06-02T13:14:25.939Z,5.05
2018-06-02T13:18:28.395Z,4.28
2018-06-02T13:22:30.867Z,4.80
2018-06-02T13:26:33.355Z,4.87
2018-06-02T13:30:35.842Z,4.55
2018-06-02T13:34:38.330Z,4.97
2018-06-02T13:38:40.791Z,5.50
2018-06-02T13:42:43.285Z,5.03
2018-06-02T13:46:45.764Z,5.45
2018-06-02T13:50:48.282Z,5.22
2018-06-02T13:54:50.787Z,5.72
2018-06-02T13:58:53.240Z,5.50
2018-06-02T14:02:55.726Z,5.22
2018-06-02T14:06:58.209Z,6.80
2018-06-02T14:11:00.695Z,8.98
2018-06-02T14:15:03.179Z,7.12
2018-06-02T14:19:05.634Z,6.35
2018-06-02T14:23:08.375Z,6.72
2018-06-02T14:27:10.855Z,6.47
2018-06-02T14:31:13.339Z,6.03
2018-06-02T14:35:15.816Z,6.00
2018-06-02T14:39:18.296Z,6.95
2018-06-02T14:43:20.816Z,6.57
2018-06-02T14:47:23.269Z,5.43
2018-06-02T14:51:25.798Z,5.50
2018-06-02T14:55:28.259Z,6.22
2018-06-02T14:59:30.758Z,6.75
2018-06-02T15:03:33.268Z,6.05
2018-06-02T15:07:35.769Z,6.22
2018-06-02T15:11:38.290Z,4.80
2018-06-02T15:15:40.782Z,6.70
2018-06-02T15:19:43.282Z,4.70
2018-06-02T15:23:45.781Z,4.20
2018-06-02T15:27:48.277Z,4.00
2018-06-02T15:31:50.769Z,5.03
2018-06-02T15:35:53.252Z,4.85
2018-06-02T15:39:55.711Z,3.22
2018-06-02T15:43:58.195Z,4.35
2018-06-02T15:48:00.685Z,3.90
2018-06-02T15:52:03.162Z,5.22
2018-06-02T15:56:07.146Z,4.22
2018-06-02T16:00:09.664Z,4.47
2018-06-02T16:04:12.149Z,5.50
2018-06-02T16:08:14.647Z,4.60
2018-06-02T16:12:17.129Z,5.35
2018-06-02T16:16:19.617Z,4.78
2018-06-02T16:20:22.102Z,5.10
2018-06-02T16:24:24.577Z,4.72
2018-06-02T16:28:27.036Z,5.00
2018-06-02T16:32:29.527Z,5.32
2018-06-02T16:36:32.000Z,4.32
2018-06-02T16:40:34.486Z,5.95
2018-06-02T16:44:36.954Z,5.10
2018-06-02T16:48:39.471Z,5.47
2018-06-02T16:52:41.961Z,5.53
2018-06-02T16:56:44.472Z,4.50
2018-06-02T17:00:46.986Z,5.95
2018-06-02T17:04:49.481Z,4.50
2018-06-02T17:08:51.980Z,3.95
2018-06-02T17:12:54.466Z,4.28
2018-06-02T17:16:56.923Z,3.45
2018-06-02T17:20:59.399Z,3.50
2018-06-02T17:25:01.855Z,4.40
2018-06-02T17:29:04.336Z,4.68
2018-06-02T17:33:06.824Z,3.30
2018-06-02T17:37:09.280Z,3.33
2018-06-02T17:41:11.774Z,4.03
2018-06-02T17:45:14.246Z,4.93
2018-06-02T17:49:16.731Z,3.08
2018-06-02T17:53:19.217Z,3.60
2018-06-02T17:57:21.710Z,3.65
2018-06-02T18:01:24.218Z,3.83
2018-06-02T18:05:26.702Z,3.62
2018-06-02T18:09:29.189Z,5.10
2018-06-02T18:13:31.770Z,3.62
2018-06-02T18:17:34.245Z,3.78
2018-06-02T18:21:36.735Z,3.10
2018-06-02T18:25:39.203Z,3.80
2018-06-02T18:29:41.700Z,3.72
2018-06-02T18:33:44.191Z,3.83
2018-06-02T18:37:46.691Z,4.00
2018-06-02T18:41:49.151Z,3.92
2018-06-02T18:45:51.643Z,3.50
2018-06-02T18:49:54.141Z,3.40
2018-06-02T18:53:56.626Z,3.50
2018-06-02T18:57:59.117Z,3.97
2018-06-02T19:02:01.603Z,4.97
2018-06-02T19:06:04.082Z,5.40
2018-06-02T19:10:06.699Z,3.47
2018-06-02T19:14:09.210Z,3.67
2018-06-02T19:18:11.658Z,3.45
2018-06-02T19:22:14.140Z,4.00
2018-06-02T19:26:16.603Z,4.32
2018-06-02T19:30:19.095Z,4.30
2018-06-02T19:34:21.555Z,5.93
2018-06-02T19:38:24.033Z,4.30
2018-06-02T19:42:26.519Z,3.65
2018-06-02T19:46:29.007Z,3.55
2018-06-02T19:50:31.503Z,3.75
2018-06-02T19:54:34.037Z,3.10
2018-06-02T19:58:36.542Z,3.60
2018-06-02T20:02:39.010Z,3.10
2018-06-02T20:06:41.532Z,3.22
2018-06-02T20:10:44.015Z,3.45
2018-06-02T20:14:46.528Z,3.10
2018-06-02T20:18:49.010Z,3.50
2018-06-02T20:22:51.474Z,3.00
2018-06-02T20:26:53.956Z,3.65
2018-06-02T20:30:56.441Z,3.37
2018-06-02T20:34:58.926Z,3.72
2018-06-02T20:39:01.422Z,3.55
2018-06-02T20:43:03.911Z,2.97
2018-06-02T20:47:06.416Z,3.35
2018-06-02T20:51:08.895Z,3.55
2018-06-02T20:55:11.382Z,3.83
2018-06-02T20:59:13.841Z,2.80
2018-06-02T21:03:16.337Z,2.75
2018-06-02T21:07:18.833Z,3.00
2018-06-02T21:11:21.320Z,3.12
2018-06-02T21:15:23.789Z,3.30
2018-06-02T21:19:26.268Z,3.45
2018-06-02T21:23:28.755Z,3.17
2018-06-02T21:27:31.271Z,2.83
2018-06-02T21:31:33.752Z,3.45
2018-06-02T21:35:36.236Z,4.78
2018-06-02T21:39:38.717Z,3.00
2018-06-02T21:43:41.210Z,3.37
2018-06-02T21:47:43.680Z,2.53
2018-06-02T21:51:46.167Z,4.03
2018-06-02T21:55:48.628Z,2.63
2018-06-02T21:59:51.126Z,2.63
2018-06-02T22:03:53.604Z,2.75
2018-06-02T22:07:56.087Z,3.22
2018-06-02T22:11:58.574Z,4.05
2018-06-02T22:16:01.085Z,2.75
2018-06-02T22:20:03.578Z,3.87
2018-06-02T22:24:06.055Z,2.50
2018-06-02T22:28:08.544Z,3.20
2018-06-02T22:32:11.021Z,2.80
2018-06-02T22:36:13.520Z,3.83
2018-06-02T22:40:15.995Z,2.73
2018-06-02T22:44:18.481Z,3.20
2018-06-02T22:48:20.952Z,2.60
2018-06-02T22:52:23.450Z,4.37
2018-06-02T22:56:25.930Z,2.63
2018-06-02T23:00:28.499Z,3.90
2018-06-02T23:04:31.053Z,2.80
2018-06-02T23:08:33.541Z,2.70
2018-06-02T23:12:36.016Z,2.60
2018-06-02T23:16:38.501Z,2.93
2018-06-02T23:20:40.950Z,3.10
2018-06-02T23:24:43.431Z,2.90
2018-06-02T23:28:45.917Z,3.17
2018-06-02T23:32:48.402Z,2.80
2018-06-02T23:36:50.881Z,2.80
2018-06-02T23:40:53.366Z,3.10
2018-06-02T23:44:55.858Z,3.20
2018-06-02T23:48:58.342Z,3.03
2018-06-02T23:53:00.815Z,4.33
2018-06-02T23:57:03.309Z,2.93
